createdAt,value
2023-03-10T00:01:22.794Z,97529.75
2023-03-10T00:03:49.730Z,97529.03
2023-03-10T00:06:19.836Z,97536.25
2023-03-10T00:08:47.297Z,97533.69
2023-03-10T00:11:15.092Z,97538.13
2023-03-10T00:13:42.833Z,97529.34
2023-03-10T00:16:18.781Z,97520.03
2023-03-10T00:18:46.494Z,97519.28
2023-03-10T00:21:19.020Z,97511.47
2023-03-10T00:23:47.466Z,97513.09
2023-03-10T00:26:16.060Z,97500.81
2023-03-10T00:28:43.072Z,97500.91
2023-03-10T00:31:19.098Z,97503.66
2023-03-10T00:33:46.712Z,97498.56
2023-03-10T00:36:16.817Z,97481.09
2023-03-10T00:38:44.861Z,97467.59
2023-03-10T00:41:21.066Z,97463.00
2023-03-10T00:43:47.942Z,97465.72
2023-03-10T00:46:16.089Z,97464.34
2023-03-10T00:48:43.496Z,97466.50
2023-03-10T00:51:10.648Z,97460.50
2023-03-10T00:53:39.992Z,97462.34
2023-03-10T00:56:11.019Z,97463.19
2023-03-10T00:58:38.390Z,97462.16
2023-03-10T01:01:30.191Z,97466.66
2023-03-10T01:03:59.823Z,97469.59
2023-03-10T01:06:26.646Z,97471.41
2023-03-10T01:08:53.980Z,97458.72
2023-03-10T01:11:24.607Z,97458.22
2023-03-10T01:13:52.380Z,97464.41
2023-03-10T01:16:19.738Z,97453.34
2023-03-10T01:18:46.477Z,97447.13
2023-03-10T01:21:20.228Z,97437.69
2023-03-10T01:23:47.588Z,97430.47
2023-03-10T01:26:16.488Z,97429.69
2023-03-10T01:28:44.298Z,97427.53
2023-03-10T01:31:11.392Z,97416.25
2023-03-10T01:33:43.359Z,97428.56
2023-03-10T01:36:20.066Z,97415.16
2023-03-10T01:38:50.686Z,97410.31
2023-03-10T01:41:18.540Z,97405.47
2023-03-10T01:43:47.967Z,97394.44
2023-03-10T01:46:29.948Z,97378.31
2023-03-10T01:49:01.228Z,97372.06
2023-03-10T01:51:32.635Z,97375.34
2023-03-10T01:54:00.172Z,97368.38
2023-03-10T01:56:26.986Z,97367.03
2023-03-10T01:58:54.440Z,97363.81
2023-03-10T02:01:21.979Z,97374.28
2023-03-10T02:03:57.286Z,97361.44
2023-03-10T02:06:25.608Z,97346.91
2023-03-10T02:08:57.789Z,97346.13
2023-03-10T02:11:25.532Z,97349.84
2023-03-10T02:13:52.462Z,97338.25
2023-03-10T02:16:19.578Z,97335.47
2023-03-10T02:18:47.557Z,97340.09
2023-03-10T02:21:36.251Z,97325.06
2023-03-10T02:24:06.057Z,97327.44
2023-03-10T02:26:33.026Z,97313.44
2023-03-10T02:29:01.938Z,97314.81
2023-03-10T02:31:30.078Z,97322.63
2023-03-10T02:33:57.678Z,97297.59
2023-03-10T02:36:24.924Z,97305.41
2023-03-10T02:38:51.878Z,97299.75
2023-03-10T02:41:29.418Z,97298.91
2023-03-10T02:43:56.468Z,97296.84
2023-03-10T02:46:27.749Z,97305.94
2023-03-10T02:48:54.762Z,97298.44
2023-03-10T02:51:32.698Z,97287.66
2023-03-10T02:54:00.687Z,97288.19
2023-03-10T02:56:28.331Z,97286.09
2023-03-10T03:01:22.124Z,97287.66
2023-03-10T03:03:48.951Z,97278.22
2023-03-10T03:06:15.723Z,97281.72
2023-03-10T03:08:42.459Z,97298.34
2023-03-10T03:11:09.435Z,97304.03
2023-03-10T03:13:36.265Z,97305.94
2023-03-10T03:16:06.560Z,97294.06
2023-03-10T03:18:33.805Z,97293.03
2023-03-10T03:21:12.186Z,97292.75
2023-03-10T03:23:39.633Z,97300.53
2023-03-10T03:26:18.287Z,97290.81
2023-03-10T03:28:45.648Z,97301.06
2023-03-10T03:31:21.823Z,97296.19
2023-03-10T03:33:48.962Z,97294.34
2023-03-10T03:36:15.746Z,97292.19
2023-03-10T03:38:42.815Z,97292.44
2023-03-10T03:41:09.991Z,97297.28
2023-03-10T03:43:36.808Z,97284.63
2023-03-10T03:46:04.956Z,97291.09
2023-03-10T03:48:31.812Z,97283.81
2023-03-10T03:50:58.492Z,97272.00
2023-03-10T03:53:25.298Z,97291.13
2023-03-10T03:55:52.101Z,97277.94
2023-03-10T03:58:19.191Z,97284.38
2023-03-10T04:00:46.286Z,97264.44
2023-03-10T04:03:13.018Z,97266.56
2023-03-10T04:05:41.363Z,97271.38
2023-03-10T04:08:08.837Z,97270.88
2023-03-10T04:10:36.829Z,97264.41
2023-03-10T04:13:03.806Z,97262.75
2023-03-10T04:15:30.734Z,97258.00
2023-03-10T04:17:58.541Z,97258.50
2023-03-10T04:20:25.794Z,97267.94
2023-03-10T04:22:52.673Z,97266.84
2023-03-10T04:25:19.610Z,97257.41
2023-03-10T04:27:46.255Z,97262.28
2023-03-10T04:30:14.767Z,97255.56
2023-03-10T04:32:41.803Z,97256.16
2023-03-10T04:35:09.055Z,97254.25
2023-03-10T04:37:35.842Z,97241.88
2023-03-10T04:40:08.394Z,97239.16
2023-03-10T04:42:36.006Z,97243.72
2023-03-10T04:45:06.123Z,97242.34
2023-03-10T04:47:32.912Z,97240.75
2023-03-10T04:49:59.600Z,97241.78
2023-03-10T04:52:26.425Z,97244.50
2023-03-10T04:54:53.354Z,97245.91
2023-03-10T04:57:20.125Z,97256.38
2023-03-10T04:59:46.927Z,97245.88
2023-03-10T05:02:13.594Z,97246.97
2023-03-10T05:04:40.435Z,97223.59
2023-03-10T05:07:07.402Z,97235.34
2023-03-10T05:09:38.029Z,97230.53
2023-03-10T05:12:05.568Z,97231.56
2023-03-10T05:14:32.327Z,97241.25
2023-03-10T05:16:59.221Z,97242.28
2023-03-10T05:19:26.564Z,97238.25
2023-03-10T05:21:53.595Z,97244.94
2023-03-10T05:24:21.406Z,97248.66
2023-03-10T05:26:48.064Z,97256.16
2023-03-10T05:29:14.718Z,97255.66
2023-03-10T05:31:42.444Z,97242.97
2023-03-10T05:34:11.684Z,97249.06
2023-03-10T05:36:38.413Z,97264.31
2023-03-10T05:39:09.717Z,97258.16
2023-03-10T05:41:37.465Z,97249.28
2023-03-10T05:44:04.817Z,97258.66
2023-03-10T05:46:35.437Z,97251.66
2023-03-10T05:49:02.565Z,97253.75
2023-03-10T05:51:29.971Z,97251.28
2023-03-10T05:53:57.524Z,97254.22
2023-03-10T05:56:24.480Z,97253.66
2023-03-10T05:58:51.182Z,97249.34
2023-03-10T06:01:19.256Z,97252.91
2023-03-10T06:03:46.520Z,97250.47
2023-03-10T06:06:13.631Z,97238.69
2023-03-10T06:08:40.632Z,97245.66
2023-03-10T06:11:08.993Z,97239.22
2023-03-10T06:13:36.418Z,97235.56
2023-03-10T06:16:09.009Z,97226.97
2023-03-10T06:18:36.485Z,97228.56
2023-03-10T06:21:08.624Z,97232.63
2023-03-10T06:23:36.405Z,97233.44
2023-03-10T06:26:09.412Z,97239.91
2023-03-10T06:28:38.581Z,97228.06
2023-03-10T06:31:08.426Z,97234.25
2023-03-10T06:33:39.757Z,97244.22
2023-03-10T06:36:08.756Z,97232.09
2023-03-10T06:38:35.836Z,97242.59
2023-03-10T06:41:03.036Z,97234.34
2023-03-10T06:43:31.271Z,97233.59
2023-03-10T06:45:58.235Z,97220.25
2023-03-10T06:48:25.229Z,97206.31
2023-03-10T06:50:52.162Z,97210.59
2023-03-10T06:53:20.865Z,97216.56
2023-03-10T06:55:56.551Z,97217.66
2023-03-10T06:58:27.757Z,97217.63
2023-03-10T07:00:54.592Z,97222.78
2023-03-10T07:03:21.672Z,97218.00
2023-03-10T07:05:48.681Z,97205.41
2023-03-10T07:08:15.338Z,97201.09
2023-03-10T07:10:42.009Z,97200.56
2023-03-10T07:13:09.579Z,97204.63
2023-03-10T07:15:41.137Z,97197.34
2023-03-10T07:18:08.377Z,97201.66
2023-03-10T07:20:35.133Z,97200.59
2023-03-10T07:23:01.749Z,97180.69
2023-03-10T07:25:28.562Z,97183.94
2023-03-10T07:30:22.028Z,97193.31
2023-03-10T07:32:53.468Z,97194.13
2023-03-10T07:35:20.225Z,97197.13
2023-03-10T07:37:46.967Z,97188.75
2023-03-10T07:40:14.137Z,97189.84
2023-03-10T07:42:43.567Z,97187.72
2023-03-10T07:45:12.929Z,97188.25
2023-03-10T07:47:39.618Z,97189.34
2023-03-10T07:50:06.889Z,97191.50
2023-03-10T07:52:34.268Z,97192.03
2023-03-10T07:55:01.519Z,97189.06
2023-03-10T07:57:29.383Z,97185.53
2023-03-10T08:02:22.625Z,97186.06
2023-03-10T08:04:49.465Z,97181.22
2023-03-10T08:07:16.412Z,97185.53
2023-03-10T08:09:43.173Z,97187.66
2023-03-10T08:12:10.185Z,97191.47
2023-03-10T08:14:37.032Z,97192.00
2023-03-10T08:17:04.290Z,97190.91
2023-03-10T08:19:30.950Z,97190.38
2023-03-10T08:22:02.711Z,97189.84
2023-03-10T08:24:29.554Z,97188.50
2023-03-10T08:29:23.054Z,97200.59
2023-03-10T08:31:50.230Z,97201.16
2023-03-10T08:34:17.242Z,97204.81
2023-03-10T08:36:44.147Z,97195.94
2023-03-10T08:39:13.225Z,97201.84
2023-03-10T08:41:45.808Z,97196.69
2023-03-10T08:44:15.695Z,97193.94
2023-03-10T08:46:46.628Z,97194.56
2023-03-10T08:49:16.029Z,97193.41
2023-03-10T08:51:44.102Z,97190.22
2023-03-10T08:54:13.454Z,97183.72
2023-03-10T08:56:40.560Z,97185.66
2023-03-10T08:59:07.305Z,97179.75
2023-03-10T09:01:36.684Z,97179.38
2023-03-10T09:04:06.220Z,97181.56
2023-03-10T09:06:34.237Z,97185.56
2023-03-10T09:09:01.082Z,97180.44
2023-03-10T09:11:31.736Z,97183.81
2023-03-10T09:13:59.837Z,97188.25
2023-03-10T09:16:28.944Z,97177.44
2023-03-10T09:18:57.536Z,97186.59
2023-03-10T09:21:24.604Z,97189.97
2023-03-10T09:23:53.048Z,97189.63
2023-03-10T09:26:20.805Z,97178.72
2023-03-10T09:28:51.146Z,97188.41
2023-03-10T09:31:21.851Z,97198.25
2023-03-10T09:33:49.570Z,97197.72
2023-03-10T09:36:17.015Z,97188.66
2023-03-10T09:38:43.938Z,97197.59
2023-03-10T09:41:17.260Z,97197.91
2023-03-10T09:43:50.929Z,97196.84
2023-03-10T09:46:23.631Z,97207.84
2023-03-10T09:51:26.188Z,97201.16
2023-03-10T09:53:57.537Z,97207.84
2023-03-10T09:56:31.756Z,97204.91
2023-03-10T09:59:14.712Z,97206.53
2023-03-10T10:01:45.455Z,97203.56
2023-03-10T10:04:18.053Z,97199.25
2023-03-10T10:06:47.498Z,97195.19
2023-03-10T10:09:24.992Z,97197.31
2023-03-10T10:11:51.696Z,97211.28
2023-03-10T10:14:28.829Z,97226.88
2023-03-10T10:16:57.734Z,97212.66
2023-03-10T10:19:26.775Z,97220.47
2023-03-10T10:22:02.213Z,97216.69
2023-03-10T10:24:29.798Z,97223.44
2023-03-10T10:26:57.899Z,97219.47
2023-03-10T10:29:47.159Z,97226.44
2023-03-10T10:32:16.202Z,97232.75
2023-03-10T10:34:45.084Z,97229.81
2023-03-10T10:37:26.990Z,97227.63
2023-03-10T10:42:28.773Z,97234.41
2023-03-10T10:44:56.987Z,97228.94
2023-03-10T10:47:26.743Z,97220.31
2023-03-10T10:49:54.351Z,97229.88
2023-03-10T10:52:24.054Z,97242.31
2023-03-10T10:54:56.672Z,97228.94
2023-03-10T10:57:32.356Z,97224.22
2023-03-10T11:00:25.586Z,97229.59
2023-03-10T11:02:53.654Z,97222.03
2023-03-10T11:05:31.979Z,97228.97
2023-03-10T11:08:28.436Z,97216.56
2023-03-10T11:10:56.971Z,97207.59
2023-03-10T11:13:32.218Z,97213.38
2023-03-10T11:16:12.182Z,97209.00
2023-03-10T11:18:58.642Z,97196.84
2023-03-10T11:21:31.928Z,97199.75
2023-03-10T11:24:16.849Z,97195.56
2023-03-10T11:26:57.640Z,97201.09
2023-03-10T11:29:38.780Z,97195.28
2023-03-10T11:32:34.383Z,97195.66
2023-03-10T11:35:16.486Z,97198.09
2023-03-10T11:37:52.271Z,97195.41
2023-03-10T11:40:20.100Z,97208.31
2023-03-10T11:45:35.585Z,97209.75
2023-03-10T11:48:33.057Z,97191.66
2023-03-10T11:51:05.499Z,97210.44
2023-03-10T11:53:45.863Z,97200.94
2023-03-10T11:56:15.629Z,97194.63
2023-03-10T11:58:52.137Z,97200.56
2023-03-10T12:01:27.224Z,97200.56
2023-03-10T12:03:58.014Z,97200.59
2023-03-10T12:06:42.274Z,97203.25
2023-03-10T12:09:19.914Z,97184.94
2023-03-10T12:11:48.365Z,97184.88
2023-03-10T12:14:15.757Z,97186.50
2023-03-10T12:16:43.920Z,97176.75
2023-03-10T12:19:10.778Z,97179.75
2023-03-10T12:21:37.498Z,97178.41
2023-03-10T12:24:06.162Z,97189.16
2023-03-10T12:26:39.179Z,97168.38
2023-03-10T12:29:21.579Z,97169.22
2023-03-10T12:31:53.920Z,97175.16
2023-03-10T12:34:23.257Z,97165.44
2023-03-10T12:36:56.704Z,97165.47
2023-03-10T12:39:29.154Z,97185.69
2023-03-10T12:41:57.642Z,97171.78
2023-03-10T12:44:49.219Z,97166.47
2023-03-10T12:47:19.166Z,97171.47
2023-03-10T12:49:57.746Z,97190.16
2023-03-10T12:52:40.187Z,97158.06
2023-03-10T12:55:26.804Z,97154.91
2023-03-10T13:00:40.734Z,97174.25
2023-03-10T13:03:10.747Z,97156.13
2023-03-10T13:05:56.800Z,97149.69
2023-03-10T13:08:31.829Z,97159.94
2023-03-10T13:11:00.669Z,97153.00
2023-03-10T13:13:35.234Z,97153.56
2023-03-10T13:16:19.647Z,97172.19
2023-03-10T13:18:49.338Z,97152.53
2023-03-10T13:21:31.079Z,97140.03
2023-03-10T13:24:01.687Z,97149.56
2023-03-10T13:26:28.821Z,97150.38
2023-03-10T13:31:27.172Z,97156.38
2023-03-10T13:36:33.415Z,97153.19
2023-03-10T13:39:15.604Z,97151.00
2023-03-10T13:41:48.316Z,97142.91
2023-03-10T13:44:43.480Z,97147.00
2023-03-10T13:47:23.014Z,97151.59
2023-03-10T13:49:57.749Z,97149.44
2023-03-10T13:52:27.463Z,97150.03
2023-03-10T13:54:57.733Z,97161.34
2023-03-10T13:57:34.907Z,97153.00
2023-03-10T14:00:02.694Z,97151.38
2023-03-10T14:02:45.775Z,97145.69
2023-03-10T14:05:38.873Z,97145.19
2023-03-10T14:08:07.214Z,97134.94
2023-03-10T14:10:33.932Z,97136.53
2023-03-10T14:13:00.692Z,97145.91
2023-03-10T14:15:31.161Z,97146.22
2023-03-10T14:18:07.198Z,97135.50
2023-03-10T14:20:36.556Z,97161.84
2023-03-10T14:23:19.221Z,97151.66
2023-03-10T14:25:47.033Z,97152.19
2023-03-10T14:28:18.478Z,97154.31
2023-03-10T14:30:45.463Z,97144.66
2023-03-10T14:33:15.875Z,97155.38
2023-03-10T14:35:44.297Z,97147.34
2023-03-10T14:38:11.795Z,97148.38
2023-03-10T14:40:45.793Z,97163.09
2023-03-10T14:43:39.621Z,97169.16
2023-03-10T14:46:07.852Z,97163.22
2023-03-10T14:48:39.152Z,97168.47
2023-03-10T14:51:07.180Z,97156.84
2023-03-10T14:53:34.209Z,97161.94
2023-03-10T14:56:04.400Z,97150.13
2023-03-10T14:58:34.799Z,97157.38
2023-03-10T15:01:01.834Z,97169.41
2023-03-10T15:03:28.762Z,97158.38
2023-03-10T15:08:22.101Z,97165.28
2023-03-10T15:10:51.239Z,97171.47
2023-03-10T15:13:24.324Z,97171.94
2023-03-10T15:15:51.909Z,97163.56
2023-03-10T15:18:21.500Z,97161.69
2023-03-10T15:20:49.275Z,97169.69
2023-03-10T15:23:19.817Z,97171.31
2023-03-10T15:25:47.183Z,97183.13
2023-03-10T15:28:15.298Z,97171.31
2023-03-10T15:30:42.358Z,97171.31
2023-03-10T15:33:10.828Z,97171.91
2023-03-10T15:35:38.489Z,97174.03
2023-03-10T15:38:05.604Z,97178.63
2023-03-10T15:40:33.236Z,97177.81
2023-03-10T15:43:01.076Z,97172.06
2023-03-10T15:45:30.278Z,97181.69
2023-03-10T15:47:56.925Z,97174.72
2023-03-10T15:50:24.284Z,97181.63
2023-03-10T15:55:23.188Z,97178.84
2023-03-10T15:57:50.194Z,97174.28
2023-03-10T16:00:19.571Z,97171.31
2023-03-10T16:02:47.402Z,97176.38
2023-03-10T16:05:14.656Z,97196.75
2023-03-10T16:07:41.597Z,97179.31
2023-03-10T16:10:17.202Z,97193.81
2023-03-10T16:12:44.247Z,97177.16
2023-03-10T16:15:11.801Z,97187.34
2023-03-10T16:17:38.561Z,97190.53
2023-03-10T16:20:09.164Z,97203.88
2023-03-10T16:22:40.582Z,97208.69
2023-03-10T16:25:10.354Z,97209.69
2023-03-10T16:27:37.628Z,97219.78
2023-03-10T16:30:05.056Z,97215.84
2023-03-10T16:32:32.063Z,97218.84
2023-03-10T16:35:00.203Z,97224.97
2023-03-10T16:37:29.126Z,97245.09
2023-03-10T16:42:24.016Z,97232.44
2023-03-10T16:44:50.805Z,97237.97
2023-03-10T16:47:18.125Z,97276.22
2023-03-10T16:49:44.985Z,97273.63
2023-03-10T16:52:11.810Z,97271.38
2023-03-10T16:54:39.162Z,97265.84
2023-03-10T16:57:09.531Z,97262.72
2023-03-10T16:59:37.070Z,97285.31
2023-03-10T17:02:05.249Z,97294.25
2023-03-10T17:04:31.886Z,97316.31
2023-03-10T17:06:59.049Z,97309.72
2023-03-10T17:09:25.751Z,97319.94
2023-03-10T17:11:55.354Z,97323.78
2023-03-10T17:14:23.314Z,97314.13
2023-03-10T17:16:50.367Z,97300.03
2023-03-10T17:19:20.780Z,97314.53
2023-03-10T17:21:50.823Z,97322.22
2023-03-10T17:24:19.165Z,97333.59
2023-03-10T17:26:46.311Z,97324.09
2023-03-10T17:29:14.036Z,97343.97
2023-03-10T17:31:41.286Z,97341.53
2023-03-10T17:34:11.180Z,97337.72
2023-03-10T17:36:37.996Z,97334.47
2023-03-10T17:39:05.746Z,97328.72
2023-03-10T17:41:37.510Z,97352.22
2023-03-10T17:44:07.223Z,97355.97
2023-03-10T17:46:38.388Z,97349.00
2023-03-10T17:49:05.428Z,97353.84
2023-03-10T17:51:33.664Z,97362.38
2023-03-10T17:54:02.135Z,97367.00
2023-03-10T17:56:29.238Z,97378.50
2023-03-10T17:58:57.981Z,97357.34
2023-03-10T18:01:27.905Z,97349.00
2023-03-10T18:06:26.693Z,97354.75
2023-03-10T18:08:56.243Z,97344.28
2023-03-10T18:11:22.506Z,97338.78
2023-03-10T18:13:50.797Z,97343.66
2023-03-10T18:16:23.499Z,97353.03
2023-03-10T18:18:50.871Z,97349.00
2023-03-10T18:21:19.357Z,97351.00
2023-03-10T18:23:47.296Z,97350.75
2023-03-10T18:26:16.842Z,97354.50
2023-03-10T18:28:44.180Z,97356.84
2023-03-10T18:31:18.362Z,97331.69
2023-03-10T18:33:46.675Z,97324.66
2023-03-10T18:36:15.046Z,97333.75
2023-03-10T18:38:42.639Z,97371.13
2023-03-10T18:41:10.167Z,97341.13
2023-03-10T18:43:37.423Z,97350.13
2023-03-10T18:46:04.993Z,97390.66
2023-03-10T18:48:31.988Z,97380.13
2023-03-10T18:51:00.829Z,97384.00
2023-03-10T18:53:28.752Z,97371.97
2023-03-10T18:55:58.318Z,97366.13
2023-03-10T18:58:26.540Z,97357.66
2023-03-10T19:00:53.829Z,97359.47
2023-03-10T19:03:20.920Z,97348.47
2023-03-10T19:05:53.044Z,97358.03
2023-03-10T19:08:20.377Z,97379.03
2023-03-10T19:13:28.151Z,97377.03
2023-03-10T19:18:23.386Z,97369.56
2023-03-10T19:20:51.260Z,97373.63
2023-03-10T19:23:18.027Z,97388.63
2023-03-10T19:25:44.894Z,97419.91
2023-03-10T19:28:11.993Z,97378.16
2023-03-10T19:30:42.950Z,97393.16
2023-03-10T19:33:11.081Z,97366.31
2023-03-10T19:35:40.064Z,97368.44
2023-03-10T19:38:08.086Z,97404.72
2023-03-10T19:40:38.583Z,97423.69
2023-03-10T19:43:06.385Z,97434.28
2023-03-10T19:45:34.586Z,97430.69
2023-03-10T19:48:01.597Z,97532.28
2023-03-10T19:50:29.648Z,97498.47
2023-03-10T19:55:25.364Z,97494.31
2023-03-10T19:57:54.424Z,97475.50
2023-03-10T20:00:25.774Z,97505.50
2023-03-10T20:02:55.360Z,97506.97
2023-03-10T20:05:23.217Z,97534.72
2023-03-10T20:07:50.341Z,97600.81
2023-03-10T20:10:18.354Z,97544.06
2023-03-10T20:12:47.359Z,97566.00
2023-03-10T20:15:15.763Z,97592.38
2023-03-10T20:17:42.753Z,97619.31
2023-03-10T20:20:11.010Z,97605.84
2023-03-10T20:22:43.511Z,97604.19
2023-03-10T20:25:12.828Z,97639.06
2023-03-10T20:27:39.632Z,97617.00
2023-03-10T20:30:21.636Z,97645.47
2023-03-10T20:32:48.523Z,97669.41
2023-03-10T20:35:16.452Z,97680.06
2023-03-10T20:37:44.248Z,97689.50
2023-03-10T20:40:16.502Z,97699.31
2023-03-10T20:42:43.389Z,97715.06
2023-03-10T20:45:11.401Z,97739.00
2023-03-10T20:47:38.463Z,97754.81
2023-03-10T20:50:07.824Z,97832.75
2023-03-10T20:52:42.335Z,97767.72
2023-03-10T20:55:16.337Z,97767.91
2023-03-10T20:57:43.139Z,97785.72
2023-03-10T21:00:12.360Z,97788.19
2023-03-10T21:02:39.348Z,97801.09
2023-03-10T21:05:06.883Z,97825.84
2023-03-10T21:07:33.525Z,97800.47
2023-03-10T21:10:00.725Z,97859.16
2023-03-10T21:12:28.571Z,97844.22
2023-03-10T21:17:23.145Z,97872.88
2023-03-10T21:19:49.903Z,97892.50
2023-03-10T21:22:16.714Z,97889.22
2023-03-10T21:24:43.372Z,97928.47
2023-03-10T21:27:10.142Z,97926.44
2023-03-10T21:29:36.958Z,97914.97
2023-03-10T21:32:04.297Z,97933.78
2023-03-10T21:34:33.011Z,97949.72
2023-03-10T21:37:00.460Z,97974.03
2023-03-10T21:39:27.560Z,97984.66
2023-03-10T21:41:54.506Z,97989.38
2023-03-10T21:44:21.151Z,97974.03
2023-03-10T21:46:49.361Z,97978.50
2023-03-10T21:49:16.104Z,97992.59
2023-03-10T21:51:43.037Z,98015.25
2023-03-10T21:54:10.192Z,97998.28
2023-03-10T21:56:37.791Z,98006.47
2023-03-10T21:59:04.492Z,98010.56
2023-03-10T22:01:32.162Z,98030.56
2023-03-10T22:03:58.989Z,98021.97
2023-03-10T22:06:25.897Z,98034.22
2023-03-10T22:08:53.242Z,98042.78
2023-03-10T22:11:22.915Z,98035.44
2023-03-10T22:13:49.631Z,98056.69
2023-03-10T22:16:18.099Z,98063.66
2023-03-10T22:18:45.731Z,98072.63
2023-03-10T22:21:12.499Z,98080.75
2023-03-10T22:23:39.253Z,98077.84
2023-03-10T22:26:08.213Z,98113.81
2023-03-10T22:28:36.062Z,98100.28
2023-03-10T22:31:12.936Z,98103.31
2023-03-10T22:33:41.362Z,98127.22
2023-03-10T22:36:12.171Z,98114.97
2023-03-10T22:38:41.069Z,98127.28
2023-03-10T22:41:11.947Z,98134.63
2023-03-10T22:43:39.882Z,98140.75
2023-03-10T22:46:11.057Z,98146.91
2023-03-10T22:48:38.063Z,98155.94
2023-03-10T22:51:11.510Z,98159.22
2023-03-10T22:53:38.309Z,98178.88
2023-03-10T22:56:07.788Z,98177.22
2023-03-10T22:58:34.494Z,98183.75
2023-03-10T23:01:01.505Z,98198.09
2023-03-10T23:03:28.330Z,98193.56
2023-03-10T23:05:57.983Z,98206.06
2023-03-10T23:08:25.130Z,98203.78
2023-03-10T23:10:52.473Z,98201.97
2023-03-10T23:13:20.757Z,98220.50
2023-03-10T23:15:48.039Z,98258.13
2023-03-10T23:18:15.066Z,98258.50
2023-03-10T23:20:45.404Z,98272.78
2023-03-10T23:23:14.849Z,98263.88
2023-03-10T23:25:47.290Z,98281.94
2023-03-10T23:28:16.406Z,98274.00
2023-03-10T23:30:45.082Z,98274.00
2023-03-10T23:33:20.599Z,98305.03
2023-03-10T23:35:50.763Z,98288.28
2023-03-10T23:38:18.207Z,98277.03
2023-03-10T23:40:45.051Z,98299.28
2023-03-10T23:43:15.335Z,98296.03
2023-03-10T23:45:42.223Z,98301.75
2023-03-10T23:48:16.150Z,98300.91
2023-03-10T23:50:44.555Z,98312.38
2023-03-10T23:53:13.368Z,98323.41
2023-03-10T23:55:42.808Z,98313.38
2023-03-10T23:58:10.120Z,98365.06
